createdAt,value
2023-01-13T00:01:11.924Z,98782.00
2023-01-13T00:03:38.543Z,98792.80
2023-01-13T00:06:05.608Z,98792.00
2023-01-13T00:08:32.333Z,98783.80
2023-01-13T00:10:59.162Z,98783.20
2023-01-13T00:13:28.906Z,98778.00
2023-01-13T00:16:00.310Z,98772.60
2023-01-13T00:18:27.250Z,98765.40
2023-01-13T00:21:08.143Z,98768.20
2023-01-13T00:23:34.845Z,98768.00
2023-01-13T00:26:04.539Z,98767.20
2023-01-13T00:28:31.221Z,98770.20
2023-01-13T00:31:10.269Z,98770.60
2023-01-13T00:33:37.108Z,98772.40
2023-01-13T00:36:05.536Z,98771.80
2023-01-13T00:38:33.276Z,98772.00
2023-01-13T00:41:07.993Z,98765.00
2023-01-13T00:43:35.571Z,98763.60
2023-01-13T00:46:03.462Z,98763.40
2023-01-13T00:48:30.552Z,98766.40
2023-01-13T00:51:05.242Z,98768.20
2023-01-13T00:53:40.990Z,98765.00
2023-01-13T00:56:13.839Z,98766.40
2023-01-13T00:58:40.547Z,98761.80
2023-01-13T01:01:13.559Z,98765.80
2023-01-13T01:03:40.124Z,98767.00
2023-01-13T01:06:14.489Z,98767.20
2023-01-13T01:08:41.241Z,98759.80
2023-01-13T01:11:16.632Z,98755.40
2023-01-13T01:13:43.439Z,98744.60
2023-01-13T01:16:13.260Z,98738.60
2023-01-13T01:18:42.644Z,98737.40
2023-01-13T01:21:09.570Z,98730.40
2023-01-13T01:23:36.690Z,98730.60
2023-01-13T01:26:06.084Z,98721.20
2023-01-13T01:28:33.834Z,98715.40
2023-01-13T01:31:01.385Z,98716.80
2023-01-13T01:33:27.840Z,98716.60
2023-01-13T01:35:54.446Z,98712.80
2023-01-13T01:38:22.850Z,98713.00
2023-01-13T01:40:49.454Z,98703.80
2023-01-13T01:43:38.346Z,98698.00
2023-01-13T01:46:05.088Z,98702.00
2023-01-13T01:48:37.911Z,98698.20
2023-01-13T01:51:04.438Z,98695.00
2023-01-13T01:53:30.881Z,98697.60
2023-01-13T01:55:57.676Z,98696.20
2023-01-13T01:58:34.721Z,98691.00
2023-01-13T02:01:01.521Z,98685.80
2023-01-13T02:03:28.244Z,98683.40
2023-01-13T02:05:54.722Z,98686.20
2023-01-13T02:08:21.259Z,98693.80
2023-01-13T02:10:52.638Z,98695.20
2023-01-13T02:13:19.247Z,98693.20
2023-01-13T02:16:08.175Z,98687.20
2023-01-13T02:18:46.991Z,98688.60
2023-01-13T02:21:38.587Z,98685.40
2023-01-13T02:24:54.785Z,98686.20
2023-01-13T02:27:49.574Z,98685.60
2023-01-13T02:31:03.952Z,98684.00
2023-01-13T02:33:37.710Z,98685.80
2023-01-13T02:36:22.291Z,98681.80
2023-01-13T02:39:11.462Z,98678.80
2023-01-13T02:42:09.091Z,98679.20
2023-01-13T02:44:43.943Z,98681.20
2023-01-13T02:47:26.192Z,98680.60
2023-01-13T02:49:56.843Z,98678.00
2023-01-13T02:52:42.373Z,98677.80
2023-01-13T02:55:15.471Z,98671.20
2023-01-13T02:57:42.032Z,98675.60
2023-01-13T03:00:09.485Z,98669.00
2023-01-13T03:02:36.222Z,98672.60
2023-01-13T03:05:02.854Z,98668.60
2023-01-13T03:07:56.940Z,98671.40
2023-01-13T03:10:30.713Z,98669.60
2023-01-13T03:13:20.845Z,98665.80
2023-01-13T03:15:53.791Z,98664.60
2023-01-13T03:18:40.252Z,98662.60
2023-01-13T03:21:29.177Z,98657.40
2023-01-13T03:24:16.723Z,98650.40
2023-01-13T03:27:05.010Z,98646.40
2023-01-13T03:30:09.179Z,98649.20
2023-01-13T03:32:42.173Z,98653.00
2023-01-13T03:35:32.090Z,98646.60
2023-01-13T03:38:11.247Z,98649.20
2023-01-13T03:40:47.134Z,98646.20
2023-01-13T03:43:36.535Z,98641.40
2023-01-13T03:46:10.985Z,98637.80
2023-01-13T03:48:38.003Z,98638.60
2023-01-13T03:51:06.330Z,98639.00
2023-01-13T03:53:57.555Z,98632.80
2023-01-13T03:56:28.284Z,98629.00
2023-01-13T03:58:54.620Z,98627.60
2023-01-13T04:01:48.660Z,98629.00
2023-01-13T04:04:20.344Z,98629.60
2023-01-13T04:07:06.140Z,98624.80
2023-01-13T04:09:56.337Z,98624.40
2023-01-13T04:12:48.385Z,98621.20
2023-01-13T04:15:22.815Z,98617.60
2023-01-13T04:17:50.691Z,98615.80
2023-01-13T04:20:17.396Z,98612.00
2023-01-13T04:22:43.836Z,98610.80
2023-01-13T04:25:10.738Z,98610.40
2023-01-13T04:27:37.247Z,98608.60
2023-01-13T04:30:04.991Z,98612.00
2023-01-13T04:32:31.692Z,98614.40
2023-01-13T04:34:58.225Z,98617.20
2023-01-13T04:37:24.700Z,98613.60
2023-01-13T04:39:51.078Z,98605.00
2023-01-13T04:42:17.425Z,98605.60
2023-01-13T04:44:43.862Z,98603.40
2023-01-13T04:47:10.346Z,98600.40
2023-01-13T04:49:36.780Z,98604.80
2023-01-13T04:52:03.338Z,98607.60
2023-01-13T04:54:29.700Z,98607.80
2023-01-13T04:56:56.159Z,98608.80
2023-01-13T04:59:22.718Z,98609.80
2023-01-13T05:01:49.178Z,98614.80
2023-01-13T05:04:16.443Z,98613.00
2023-01-13T05:06:42.898Z,98616.60
2023-01-13T05:09:11.804Z,98621.20
2023-01-13T05:11:57.491Z,98616.00
2023-01-13T05:14:42.759Z,98613.40
2023-01-13T05:17:09.417Z,98615.00
2023-01-13T05:19:38.515Z,98618.60
2023-01-13T05:22:23.741Z,98622.00
2023-01-13T05:25:08.947Z,98617.20
2023-01-13T05:27:35.485Z,98617.00
2023-01-13T05:30:02.097Z,98621.60
2023-01-13T05:32:28.625Z,98616.40
2023-01-13T05:34:55.288Z,98619.60
2023-01-13T05:37:23.108Z,98618.20
2023-01-13T05:40:08.379Z,98625.80
2023-01-13T05:42:53.612Z,98634.60
2023-01-13T05:45:20.135Z,98634.00
2023-01-13T05:47:46.495Z,98631.80
2023-01-13T05:50:12.912Z,98627.60
2023-01-13T05:52:39.275Z,98632.40
2023-01-13T05:55:06.033Z,98636.20
2023-01-13T05:57:32.595Z,98636.60
2023-01-13T05:59:59.079Z,98637.00
2023-01-13T06:02:26.083Z,98639.40
2023-01-13T06:04:52.478Z,98642.20
2023-01-13T06:07:18.990Z,98645.40
2023-01-13T06:09:45.500Z,98647.60
2023-01-13T06:12:12.231Z,98644.40
2023-01-13T06:14:41.547Z,98649.20
2023-01-13T06:17:12.848Z,98643.40
2023-01-13T06:19:39.872Z,98646.40
2023-01-13T06:22:19.911Z,98648.40
2023-01-13T06:24:47.185Z,98646.60
2023-01-13T06:27:13.902Z,98644.80
2023-01-13T06:29:40.852Z,98640.60
2023-01-13T06:32:15.395Z,98646.40
2023-01-13T06:34:44.092Z,98651.80
2023-01-13T06:37:12.098Z,98649.80
2023-01-13T06:39:38.517Z,98647.60
2023-01-13T06:42:23.792Z,98647.40
2023-01-13T06:44:50.183Z,98652.00
2023-01-13T06:47:17.478Z,98650.20
2023-01-13T06:49:43.882Z,98646.40
2023-01-13T06:52:10.438Z,98650.60
2023-01-13T06:54:36.958Z,98648.40
2023-01-13T06:57:03.650Z,98647.20
2023-01-13T06:59:30.091Z,98644.00
2023-01-13T07:01:56.725Z,98639.00
2023-01-13T07:04:23.467Z,98645.00
2023-01-13T07:06:49.894Z,98641.60
2023-01-13T07:09:16.351Z,98643.20
2023-01-13T07:11:42.942Z,98639.40
2023-01-13T07:14:28.008Z,98639.60
2023-01-13T07:16:54.468Z,98637.60
2023-01-13T07:19:23.229Z,98633.00
2023-01-13T07:21:52.609Z,98628.00
2023-01-13T07:24:19.452Z,98630.00
2023-01-13T07:26:45.844Z,98628.40
2023-01-13T07:29:12.335Z,98632.80
2023-01-13T07:31:39.373Z,98626.60
2023-01-13T07:34:06.331Z,98629.00
2023-01-13T07:36:32.842Z,98627.20
2023-01-13T07:38:59.743Z,98626.20
2023-01-13T07:41:45.009Z,98621.80
2023-01-13T07:44:11.490Z,98625.80
2023-01-13T07:46:38.408Z,98620.00
2023-01-13T07:49:05.076Z,98618.80
2023-01-13T07:51:34.453Z,98623.00
2023-01-13T07:54:00.981Z,98623.80
2023-01-13T07:56:27.429Z,98627.80
2023-01-13T07:58:53.905Z,98627.20
2023-01-13T08:01:20.467Z,98632.40
2023-01-13T08:03:47.003Z,98632.00
2023-01-13T08:06:14.200Z,98635.20
2023-01-13T08:08:40.672Z,98632.80
2023-01-13T08:11:07.494Z,98630.80
2023-01-13T08:13:33.892Z,98632.20
2023-01-13T08:16:02.144Z,98624.60
2023-01-13T08:18:28.731Z,98622.80
2023-01-13T08:20:55.282Z,98628.40
2023-01-13T08:23:22.115Z,98626.60
2023-01-13T08:25:49.092Z,98624.60
2023-01-13T08:28:15.841Z,98626.00
2023-01-13T08:30:42.474Z,98630.60
2023-01-13T08:33:10.497Z,98628.80
2023-01-13T08:35:38.414Z,98630.80
2023-01-13T08:38:05.255Z,98631.20
2023-01-13T08:40:32.118Z,98637.20
2023-01-13T08:42:58.852Z,98642.60
2023-01-13T08:45:25.424Z,98643.40
2023-01-13T08:47:51.969Z,98642.20
2023-01-13T08:50:18.679Z,98641.60
2023-01-13T08:52:45.129Z,98640.80
2023-01-13T08:55:11.654Z,98645.20
2023-01-13T08:57:38.066Z,98649.00
2023-01-13T09:00:06.500Z,98645.00
2023-01-13T09:02:33.105Z,98644.40
2023-01-13T09:05:03.954Z,98648.80
2023-01-13T09:07:30.564Z,98646.80
2023-01-13T09:09:57.004Z,98650.20
2023-01-13T09:12:42.205Z,98646.40
2023-01-13T09:15:09.269Z,98646.00
2023-01-13T09:17:35.638Z,98645.40
2023-01-13T09:20:02.170Z,98644.40
2023-01-13T09:22:28.724Z,98643.20
2023-01-13T09:24:55.400Z,98639.60
2023-01-13T09:27:22.368Z,98640.40
2023-01-13T09:29:49.038Z,98639.60
2023-01-13T09:32:15.560Z,98634.80
2023-01-13T09:35:00.300Z,98635.20
2023-01-13T09:37:41.202Z,98631.20
2023-01-13T09:40:25.959Z,98635.40
2023-01-13T09:43:15.752Z,98629.20
2023-01-13T09:45:59.261Z,98624.20
2023-01-13T09:48:51.103Z,98623.80
2023-01-13T09:51:41.002Z,98620.40
2023-01-13T09:54:25.311Z,98620.00
2023-01-13T09:56:52.489Z,98619.80
2023-01-13T09:59:19.079Z,98613.80
2023-01-13T10:01:56.818Z,98617.00
2023-01-13T10:04:23.380Z,98614.80
2023-01-13T10:06:52.804Z,98612.80
2023-01-13T10:09:26.708Z,98608.80
2023-01-13T10:12:12.982Z,98609.40
2023-01-13T10:14:42.393Z,98599.80
2023-01-13T10:17:44.624Z,98599.80
2023-01-13T10:20:32.180Z,98598.60
2023-01-13T10:23:38.203Z,98596.80
2023-01-13T10:26:39.660Z,98596.60
2023-01-13T10:29:20.039Z,98590.00
2023-01-13T10:31:46.786Z,98594.60
2023-01-13T10:34:19.179Z,98591.80
2023-01-13T10:37:08.018Z,98598.60
2023-01-13T10:39:43.599Z,98594.40
2023-01-13T10:42:16.411Z,98589.60
2023-01-13T10:45:03.060Z,98590.40
2023-01-13T10:47:34.857Z,98587.60
2023-01-13T10:50:23.940Z,98584.60
2023-01-13T10:53:22.309Z,98578.00
2023-01-13T10:56:01.402Z,98584.60
2023-01-13T10:58:28.296Z,98578.00
2023-01-13T11:01:00.814Z,98581.60
2023-01-13T11:03:40.022Z,98578.80
2023-01-13T11:06:06.909Z,98579.40
2023-01-13T11:08:44.843Z,98573.60
2023-01-13T11:11:41.173Z,98569.40
2023-01-13T11:14:39.143Z,98567.80
2023-01-13T11:17:33.191Z,98564.60
2023-01-13T11:20:30.832Z,98566.40
2023-01-13T11:23:02.279Z,98558.40
2023-01-13T11:25:51.345Z,98558.60
2023-01-13T11:28:34.956Z,98563.60
2023-01-13T11:31:12.960Z,98559.60
2023-01-13T11:33:58.579Z,98559.20
2023-01-13T11:36:32.545Z,98560.80
2023-01-13T11:39:53.716Z,98557.00
2023-01-13T11:42:26.270Z,98555.40
2023-01-13T11:45:18.285Z,98553.80
2023-01-13T11:47:50.401Z,98557.60
2023-01-13T11:50:34.465Z,98556.40
2023-01-13T11:53:30.195Z,98554.80
2023-01-13T11:56:19.365Z,98554.80
2023-01-13T11:59:05.242Z,98557.80
2023-01-13T12:02:13.526Z,98553.40
2023-01-13T12:05:28.169Z,98554.20
2023-01-13T12:08:25.469Z,98550.60
2023-01-13T12:11:05.275Z,98556.80
2023-01-13T12:14:52.645Z,98554.80
2023-01-13T12:17:48.523Z,98552.00
2023-01-13T12:20:29.890Z,98554.60
2023-01-13T12:22:56.500Z,98555.60
2023-01-13T12:25:30.485Z,98552.80
2023-01-13T12:28:18.935Z,98549.60
2023-01-13T12:30:50.175Z,98543.80
2023-01-13T12:33:56.390Z,98541.20
2023-01-13T12:36:44.054Z,98539.20
2023-01-13T12:39:28.457Z,98539.40
2023-01-13T12:42:40.317Z,98541.40
2023-01-13T12:45:09.617Z,98542.80
2023-01-13T12:47:37.618Z,98542.00
2023-01-13T12:50:36.171Z,98538.40
2023-01-13T12:53:35.636Z,98538.60
2023-01-13T12:56:41.701Z,98536.20
2023-01-13T12:59:18.443Z,98538.80
2023-01-13T13:01:47.179Z,98534.60
2023-01-13T13:04:17.876Z,98535.40
2023-01-13T13:06:51.062Z,98539.40
2023-01-13T13:09:27.955Z,98541.20
2023-01-13T13:11:57.281Z,98545.00
2023-01-13T13:14:38.791Z,98541.40
2023-01-13T13:17:31.208Z,98541.60
2023-01-13T13:19:58.995Z,98544.60
2023-01-13T13:22:27.242Z,98547.60
2023-01-13T13:24:53.750Z,98553.00
2023-01-13T13:27:48.311Z,98551.00
2023-01-13T13:30:25.099Z,98556.00
2023-01-13T13:33:19.525Z,98550.40
2023-01-13T13:36:06.881Z,98555.20
2023-01-13T13:39:23.618Z,98556.40
2023-01-13T13:42:09.917Z,98549.40
2023-01-13T13:44:58.518Z,98555.00
2023-01-13T13:47:24.897Z,98558.40
2023-01-13T13:49:53.747Z,98559.40
2023-01-13T13:52:32.688Z,98559.80
2023-01-13T13:55:07.745Z,98561.00
2023-01-13T13:57:39.836Z,98563.80
2023-01-13T14:00:29.731Z,98562.20
2023-01-13T14:03:05.378Z,98569.60
2023-01-13T14:05:35.842Z,98569.80
2023-01-13T14:08:08.424Z,98567.20
2023-01-13T14:10:37.729Z,98572.40
2023-01-13T14:13:14.241Z,98567.60
2023-01-13T14:15:40.731Z,98565.00
2023-01-13T14:18:18.669Z,98565.20
2023-01-13T14:21:25.095Z,98565.00
2023-01-13T14:23:57.051Z,98572.80
2023-01-13T14:26:29.049Z,98578.00
2023-01-13T14:28:56.567Z,98581.60
2023-01-13T14:31:23.186Z,98579.60
2023-01-13T14:34:01.517Z,98581.00
2023-01-13T14:36:31.081Z,98577.20
2023-01-13T14:39:03.756Z,98582.60
2023-01-13T14:41:42.156Z,98585.20
2023-01-13T14:44:34.272Z,98578.60
2023-01-13T14:47:04.538Z,98580.80
2023-01-13T14:49:38.893Z,98588.20
2023-01-13T14:52:23.124Z,98586.80
2023-01-13T14:55:09.613Z,98590.40
2023-01-13T14:57:40.974Z,98583.60
2023-01-13T15:00:13.296Z,98590.40
2023-01-13T15:02:44.002Z,98585.20
2023-01-13T15:05:16.489Z,98585.80
2023-01-13T15:08:09.793Z,98591.80
2023-01-13T15:10:47.698Z,98594.40
2023-01-13T15:13:47.188Z,98596.80
2023-01-13T15:16:32.250Z,98600.80
2023-01-13T15:18:59.855Z,98594.80
2023-01-13T15:21:26.359Z,98602.00
2023-01-13T15:23:52.845Z,98594.00
2023-01-13T15:26:25.859Z,98593.60
2023-01-13T15:28:54.940Z,98593.80
2023-01-13T15:31:21.591Z,98595.20
2023-01-13T15:33:48.478Z,98590.20
2023-01-13T15:39:45.379Z,98592.80
2023-01-13T15:42:31.913Z,98595.20
2023-01-13T15:45:18.775Z,98597.80
2023-01-13T15:47:46.604Z,98598.00
2023-01-13T15:50:16.426Z,98595.20
2023-01-13T15:52:44.364Z,98593.20
2023-01-13T15:55:12.303Z,98601.40
2023-01-13T15:57:42.496Z,98600.00
2023-01-13T16:00:16.794Z,98602.20
2023-01-13T16:02:44.740Z,98597.00
2023-01-13T16:05:12.962Z,98600.00
2023-01-13T16:07:40.901Z,98593.80
2023-01-13T16:10:21.481Z,98594.40
2023-01-13T16:12:49.402Z,98589.20
2023-01-13T16:15:18.169Z,98592.00
2023-01-13T16:17:46.138Z,98595.00
2023-01-13T16:20:16.519Z,98592.80
2023-01-13T16:22:45.538Z,98596.40
2023-01-13T16:25:24.858Z,98601.20
2023-01-13T16:27:52.870Z,98604.80
2023-01-13T16:30:26.276Z,98599.60
2023-01-13T16:32:55.228Z,98601.20
2023-01-13T16:35:23.333Z,98603.60
2023-01-13T16:37:52.263Z,98609.00
2023-01-13T16:40:33.479Z,98610.80
2023-01-13T16:43:03.292Z,98614.80
2023-01-13T16:45:31.430Z,98619.40
2023-01-13T16:47:59.461Z,98621.40
2023-01-13T16:50:42.540Z,98629.00
2023-01-13T16:53:11.274Z,98631.40
2023-01-13T16:55:39.982Z,98633.20
2023-01-13T16:58:16.567Z,98636.80
2023-01-13T17:00:47.091Z,98639.40
2023-01-13T17:03:16.072Z,98637.40
2023-01-13T17:05:46.938Z,98651.20
2023-01-13T17:08:18.064Z,98652.20
2023-01-13T17:10:46.314Z,98652.00
2023-01-13T17:13:16.732Z,98638.80
2023-01-13T17:15:45.731Z,98646.20
2023-01-13T17:18:13.959Z,98644.80
2023-01-13T17:20:41.788Z,98643.80
2023-01-13T17:23:09.989Z,98645.60
2023-01-13T17:25:37.913Z,98652.00
2023-01-13T17:28:06.270Z,98659.20
2023-01-13T17:30:34.467Z,98652.40
2023-01-13T17:33:02.335Z,98655.60
2023-01-13T17:35:30.213Z,98652.80
2023-01-13T17:37:58.140Z,98658.80
2023-01-13T17:40:25.973Z,98664.80
2023-01-13T17:42:53.897Z,98664.80
2023-01-13T17:45:21.937Z,98672.40
2023-01-13T17:47:49.817Z,98680.20
2023-01-13T17:50:17.872Z,98685.60
2023-01-13T17:52:46.732Z,98684.80
2023-01-13T17:55:14.664Z,98685.60
2023-01-13T17:57:42.578Z,98682.80
2023-01-13T18:00:12.544Z,98676.40
2023-01-13T18:02:40.393Z,98682.00
2023-01-13T18:05:09.009Z,98683.60
2023-01-13T18:07:36.913Z,98692.60
2023-01-13T18:10:05.279Z,98691.60
2023-01-13T18:12:34.946Z,98695.60
2023-01-13T18:15:02.687Z,98698.20
2023-01-13T18:17:30.580Z,98700.80
2023-01-13T18:20:19.166Z,98695.60
2023-01-13T18:23:05.757Z,98706.60
2023-01-13T18:25:52.364Z,98705.60
2023-01-13T18:28:20.173Z,98715.60
2023-01-13T18:30:48.050Z,98713.40
2023-01-13T18:33:15.885Z,98715.60
2023-01-13T18:35:43.832Z,98715.20
2023-01-13T18:38:14.885Z,98717.00
2023-01-13T18:40:44.614Z,98716.40
2023-01-13T18:43:12.434Z,98703.80
2023-01-13T18:45:40.215Z,98691.00
2023-01-13T18:48:08.012Z,98696.00
2023-01-13T18:50:35.962Z,98698.60
2023-01-13T18:53:03.903Z,98703.20
2023-01-13T18:55:31.700Z,98708.00
2023-01-13T18:57:59.585Z,98708.20
2023-01-13T19:00:27.524Z,98707.00
2023-01-13T19:05:34.995Z,98711.00
2023-01-13T19:08:04.053Z,98711.00
2023-01-13T19:10:32.802Z,98709.40
2023-01-13T19:13:01.570Z,98714.80
2023-01-13T19:15:29.884Z,98719.20
2023-01-13T19:17:57.919Z,98720.60
2023-01-13T19:20:25.829Z,98717.80
2023-01-13T19:22:54.584Z,98716.20
2023-01-13T19:25:22.914Z,98721.60
2023-01-13T19:27:50.792Z,98728.60
2023-01-13T19:30:18.961Z,98731.40
2023-01-13T19:32:46.916Z,98741.80
2023-01-13T19:35:17.745Z,98749.20
2023-01-13T19:37:45.795Z,98750.60
2023-01-13T19:40:13.921Z,98751.20
2023-01-13T19:43:03.417Z,98748.00
2023-01-13T19:45:33.810Z,98746.40
2023-01-13T19:48:02.508Z,98748.40
2023-01-13T19:50:30.483Z,98746.00
2023-01-13T19:52:58.324Z,98745.00
2023-01-13T19:55:26.322Z,98756.60
2023-01-13T19:57:54.209Z,98754.60
2023-01-13T20:00:22.220Z,98761.00
2023-01-13T20:02:52.414Z,98762.80
2023-01-13T20:05:22.624Z,98766.60
2023-01-13T20:07:51.073Z,98761.00
2023-01-13T20:10:20.309Z,98764.60
2023-01-13T20:12:48.364Z,98776.40
2023-01-13T20:15:16.249Z,98775.60
2023-01-13T20:17:44.259Z,98784.60
2023-01-13T20:20:12.219Z,98787.60
2023-01-13T20:22:40.103Z,98791.40
2023-01-13T20:25:09.188Z,98791.00
2023-01-13T20:27:37.262Z,98793.40
2023-01-13T20:30:09.609Z,98800.40
2023-01-13T20:32:37.624Z,98801.40
2023-01-13T20:35:07.439Z,98801.40
2023-01-13T20:37:37.250Z,98806.20
2023-01-13T20:40:06.812Z,98807.00
2023-01-13T20:42:46.851Z,98810.60
2023-01-13T20:45:21.649Z,98811.00
2023-01-13T20:47:49.410Z,98818.80
2023-01-13T20:50:17.376Z,98819.20
2023-01-13T20:52:45.387Z,98817.80
2023-01-13T20:55:13.716Z,98828.60
2023-01-13T20:57:41.947Z,98832.20
2023-01-13T21:00:10.925Z,98842.80
2023-01-13T21:02:40.919Z,98836.40
2023-01-13T21:05:09.719Z,98839.60
2023-01-13T21:07:37.615Z,98843.40
2023-01-13T21:10:05.976Z,98840.40
2023-01-13T21:12:52.682Z,98833.80
2023-01-13T21:15:22.026Z,98838.60
2023-01-13T21:18:09.955Z,98835.60
2023-01-13T21:20:38.838Z,98831.40
2023-01-13T21:23:06.870Z,98831.00
2023-01-13T21:25:36.460Z,98833.40
2023-01-13T21:28:08.324Z,98842.20
2023-01-13T21:30:38.285Z,98852.20
2023-01-13T21:33:06.331Z,98847.80
2023-01-13T21:35:38.182Z,98850.00
2023-01-13T21:38:05.958Z,98852.20
2023-01-13T21:40:33.789Z,98862.00
2023-01-13T21:43:20.462Z,98873.00
2023-01-13T21:46:07.015Z,98866.40
2023-01-13T21:48:34.987Z,98870.60
2023-01-13T21:51:02.732Z,98864.60
2023-01-13T21:53:30.597Z,98863.20
2023-01-13T21:55:58.361Z,98866.80
2023-01-13T21:58:26.118Z,98867.80
2023-01-13T22:00:54.223Z,98870.20
2023-01-13T22:03:22.264Z,98865.80
2023-01-13T22:05:55.669Z,98870.60
2023-01-13T22:08:23.588Z,98873.80
2023-01-13T22:10:57.259Z,98871.60
2023-01-13T22:13:47.519Z,98870.20
2023-01-13T22:16:15.899Z,98868.00
2023-01-13T22:18:43.694Z,98872.20
2023-01-13T22:21:11.564Z,98876.00
2023-01-13T22:23:39.321Z,98882.40
2023-01-13T22:26:07.841Z,98884.00
2023-01-13T22:28:40.549Z,98883.20
2023-01-13T22:31:15.180Z,98893.00
2023-01-13T22:33:43.157Z,98890.40
2023-01-13T22:36:11.070Z,98894.40
2023-01-13T22:38:39.108Z,98893.20
2023-01-13T22:41:08.491Z,98895.60
2023-01-13T22:43:37.084Z,98903.60
2023-01-13T22:46:08.790Z,98899.40
2023-01-13T22:48:37.618Z,98902.60
2023-01-13T22:51:10.716Z,98904.20
2023-01-13T22:53:38.845Z,98908.80
2023-01-13T22:56:07.327Z,98903.00
2023-01-13T22:58:35.257Z,98907.40
2023-01-13T23:01:15.434Z,98905.40
2023-01-13T23:03:46.384Z,98909.80
2023-01-13T23:06:14.484Z,98906.60
2023-01-13T23:08:42.338Z,98903.40
2023-01-13T23:11:13.398Z,98909.80
2023-01-13T23:13:43.206Z,98908.40
2023-01-13T23:16:21.206Z,98905.80
2023-01-13T23:18:49.474Z,98911.80
2023-01-13T23:21:27.095Z,98909.40
2023-01-13T23:23:55.803Z,98902.40
2023-01-13T23:26:24.356Z,98907.80
2023-01-13T23:28:52.219Z,98911.60
2023-01-13T23:31:22.014Z,98919.00
2023-01-13T23:33:49.834Z,98920.60
2023-01-13T23:36:20.801Z,98918.80
2023-01-13T23:39:41.919Z,98918.60
2023-01-13T23:42:09.731Z,98916.60
2023-01-13T23:44:37.597Z,98919.80
2023-01-13T23:47:05.526Z,98920.20
2023-01-13T23:49:33.432Z,98921.80
2023-01-13T23:52:01.226Z,98918.20
2023-01-13T23:54:29.099Z,98923.00
2023-01-13T23:56:57.434Z,98924.40
2023-01-13T23:59:25.385Z,98920.40
